sensor_id;sensor_type;location;lat;lon;timestamp;P1;durP1;ratioP1;P2;durP2;ratioP2
47758;SDS011;33520;55.122;35.582;2023-12-07T00:01:11;22.95;;;10.18;;
47758;SDS011;33520;55.122;35.582;2023-12-07T00:03:37;21.60;;;9.70;;
47758;SDS011;33520;55.122;35.582;2023-12-07T00:06:04;21.10;;;10.20;;
47758;SDS011;33520;55.122;35.582;2023-12-07T00:10:56;18.20;;;9.18;;
47758;SDS011;33520;55.122;35.582;2023-12-07T00:13:22;21.40;;;10.02;;
47758;SDS011;33520;55.122;35.582;2023-12-07T00:15:49;20.50;;;10.15;;
47758;SDS011;33520;55.122;35.582;2023-12-07T00:18:15;20.27;;;9.45;;
47758;SDS011;33520;55.122;35.582;2023-12-07T00:20:41;23.48;;;9.40;;
47758;SDS011;33520;55.122;35.582;2023-12-07T00:23:08;21.25;;;10.40;;
47758;SDS011;33520;55.122;35.582;2023-12-07T00:25:34;19.52;;;10.65;;
47758;SDS011;33520;55.122;35.582;2023-12-07T00:28:01;18.20;;;9.90;;
47758;SDS011;33520;55.122;35.582;2023-12-07T00:30:28;21.27;;;9.43;;
47758;SDS011;33520;55.122;35.582;2023-12-07T00:32:54;17.40;;;9.23;;
47758;SDS011;33520;55.122;35.582;2023-12-07T00:37:48;22.98;;;9.98;;
47758;SDS011;33520;55.122;35.582;2023-12-07T00:42:41;25.60;;;12.30;;
47758;SDS011;33520;55.122;35.582;2023-12-07T00:45:09;27.75;;;11.52;;
47758;SDS011;33520;55.122;35.582;2023-12-07T00:47:37;21.77;;;10.50;;
47758;SDS011;33520;55.122;35.582;2023-12-07T00:50:03;23.75;;;10.57;;
47758;SDS011;33520;55.122;35.582;2023-12-07T00:52:30;24.85;;;9.88;;
47758;SDS011;33520;55.122;35.582;2023-12-07T00:54:56;23.25;;;10.27;;
47758;SDS011;33520;55.122;35.582;2023-12-07T00:57:23;21.27;;;10.25;;
47758;SDS011;33520;55.122;35.582;2023-12-07T00:59:49;21.92;;;9.10;;
47758;SDS011;33520;55.122;35.582;2023-12-07T01:02:16;24.42;;;10.68;;
47758;SDS011;33520;55.122;35.582;2023-12-07T01:04:42;26.70;;;12.30;;
47758;SDS011;33520;55.122;35.582;2023-12-07T01:07:09;24.95;;;10.57;;
47758;SDS011;33520;55.122;35.582;2023-12-07T01:09:36;22.88;;;10.32;;
47758;SDS011;33520;55.122;35.582;2023-12-07T01:12:02;20.52;;;10.30;;
47758;SDS011;33520;55.122;35.582;2023-12-07T01:14:29;23.60;;;10.55;;
47758;SDS011;33520;55.122;35.582;2023-12-07T01:16:55;19.73;;;10.98;;
47758;SDS011;33520;55.122;35.582;2023-12-07T01:19:22;23.10;;;10.35;;
47758;SDS011;33520;55.122;35.582;2023-12-07T01:21:48;21.23;;;9.82;;
47758;SDS011;33520;55.122;35.582;2023-12-07T01:24:14;23.35;;;9.77;;
47758;SDS011;33520;55.122;35.582;2023-12-07T01:26:41;24.77;;;10.73;;
47758;SDS011;33520;55.122;35.582;2023-12-07T01:29:08;23.48;;;10.77;;
47758;SDS011;33520;55.122;35.582;2023-12-07T01:31:34;22.92;;;10.02;;
47758;SDS011;33520;55.122;35.582;2023-12-07T01:34:00;21.55;;;9.77;;
47758;SDS011;33520;55.122;35.582;2023-12-07T01:36:27;25.98;;;10.75;;
47758;SDS011;33520;55.122;35.582;2023-12-07T01:41:20;18.45;;;7.70;;
47758;SDS011;33520;55.122;35.582;2023-12-07T01:43:46;24.83;;;10.77;;
47758;SDS011;33520;55.122;35.582;2023-12-07T01:46:13;24.73;;;10.00;;
47758;SDS011;33520;55.122;35.582;2023-12-07T01:48:40;24.80;;;9.70;;
47758;SDS011;33520;55.122;35.582;2023-12-07T01:51:07;20.55;;;10.02;;
47758;SDS011;33520;55.122;35.582;2023-12-07T01:53:35;21.58;;;9.80;;
47758;SDS011;33520;55.122;35.582;2023-12-07T01:58:27;24.85;;;11.25;;
47758;SDS011;33520;55.122;35.582;2023-12-07T02:00:54;25.50;;;10.48;;
47758;SDS011;33520;55.122;35.582;2023-12-07T02:03:21;22.30;;;9.75;;
47758;SDS011;33520;55.122;35.582;2023-12-07T02:05:47;29.58;;;11.55;;
47758;SDS011;33520;55.122;35.582;2023-12-07T02:08:14;26.67;;;10.85;;
47758;SDS011;33520;55.122;35.582;2023-12-07T02:13:07;20.23;;;8.43;;
47758;SDS011;33520;55.122;35.582;2023-12-07T02:15:34;20.98;;;9.32;;
47758;SDS011;33520;55.122;35.582;2023-12-07T02:23:08;23.10;;;10.70;;
47758;SDS011;33520;55.122;35.582;2023-12-07T02:25:44;21.95;;;10.07;;
47758;SDS011;33520;55.122;35.582;2023-12-07T02:28:54;23.17;;;9.63;;
47758;SDS011;33520;55.122;35.582;2023-12-07T02:31:20;23.15;;;10.40;;
47758;SDS011;33520;55.122;35.582;2023-12-07T02:33:47;23.67;;;10.52;;
47758;SDS011;33520;55.122;35.582;2023-12-07T02:36:13;19.33;;;9.43;;
47758;SDS011;33520;55.122;35.582;2023-12-07T02:38:41;29.73;;;12.25;;
47758;SDS011;33520;55.122;35.582;2023-12-07T02:41:07;27.88;;;11.55;;
47758;SDS011;33520;55.122;35.582;2023-12-07T02:43:34;26.65;;;11.23;;
47758;SDS011;33520;55.122;35.582;2023-12-07T02:46:00;24.35;;;11.52;;
47758;SDS011;33520;55.122;35.582;2023-12-07T02:48:27;25.38;;;10.40;;
47758;SDS011;33520;55.122;35.582;2023-12-07T02:50:55;27.73;;;11.18;;
47758;SDS011;33520;55.122;35.582;2023-12-07T02:53:21;26.38;;;11.02;;
47758;SDS011;33520;55.122;35.582;2023-12-07T02:55:48;25.75;;;10.73;;
47758;SDS011;33520;55.122;35.582;2023-12-07T02:58:16;24.10;;;10.45;;
47758;SDS011;33520;55.122;35.582;2023-12-07T03:00:43;24.80;;;10.65;;
47758;SDS011;33520;55.122;35.582;2023-12-07T03:03:09;29.83;;;13.07;;
47758;SDS011;33520;55.122;35.582;2023-12-07T03:08:02;31.60;;;13.35;;
47758;SDS011;33520;55.122;35.582;2023-12-07T03:10:29;28.77;;;12.82;;
47758;SDS011;33520;55.122;35.582;2023-12-07T03:12:55;26.70;;;11.45;;
47758;SDS011;33520;55.122;35.582;2023-12-07T03:15:22;27.98;;;10.73;;
47758;SDS011;33520;55.122;35.582;2023-12-07T03:20:16;22.58;;;10.18;;
47758;SDS011;33520;55.122;35.582;2023-12-07T03:22:42;28.10;;;11.77;;
47758;SDS011;33520;55.122;35.582;2023-12-07T03:25:09;26.83;;;10.52;;
47758;SDS011;33520;55.122;35.582;2023-12-07T03:30:02;23.70;;;10.30;;
47758;SDS011;33520;55.122;35.582;2023-12-07T03:32:29;25.02;;;10.45;;
47758;SDS011;33520;55.122;35.582;2023-12-07T03:34:56;28.00;;;11.02;;
47758;SDS011;33520;55.122;35.582;2023-12-07T03:37:22;30.55;;;11.10;;
47758;SDS011;33520;55.122;35.582;2023-12-07T03:39:49;28.20;;;11.13;;
47758;SDS011;33520;55.122;35.582;2023-12-07T03:42:15;28.23;;;11.63;;
47758;SDS011;33520;55.122;35.582;2023-12-07T03:44:42;27.30;;;11.30;;
47758;SDS011;33520;55.122;35.582;2023-12-07T03:47:08;32.33;;;11.65;;
47758;SDS011;33520;55.122;35.582;2023-12-07T03:49:35;29.15;;;11.57;;
47758;SDS011;33520;55.122;35.582;2023-12-07T03:54:27;27.90;;;12.65;;
47758;SDS011;33520;55.122;35.582;2023-12-07T03:56:54;26.73;;;11.40;;
47758;SDS011;33520;55.122;35.582;2023-12-07T03:59:20;30.10;;;10.70;;
47758;SDS011;33520;55.122;35.582;2023-12-07T04:01:47;28.67;;;11.80;;
47758;SDS011;33520;55.122;35.582;2023-12-07T04:04:13;31.52;;;12.65;;
47758;SDS011;33520;55.122;35.582;2023-12-07T04:06:39;30.70;;;12.85;;
47758;SDS011;33520;55.122;35.582;2023-12-07T04:09:05;30.15;;;10.55;;
47758;SDS011;33520;55.122;35.582;2023-12-07T04:11:33;34.42;;;12.60;;
47758;SDS011;33520;55.122;35.582;2023-12-07T04:14:00;33.20;;;13.02;;
47758;SDS011;33520;55.122;35.582;2023-12-07T04:16:26;38.17;;;14.18;;
47758;SDS011;33520;55.122;35.582;2023-12-07T04:18:53;30.23;;;12.45;;
47758;SDS011;33520;55.122;35.582;2023-12-07T04:21:19;36.78;;;13.80;;
47758;SDS011;33520;55.122;35.582;2023-12-07T04:23:45;28.75;;;13.15;;
47758;SDS011;33520;55.122;35.582;2023-12-07T04:26:12;35.92;;;13.52;;
47758;SDS011;33520;55.122;35.582;2023-12-07T04:28:38;31.77;;;12.40;;
47758;SDS011;33520;55.122;35.582;2023-12-07T04:31:05;33.83;;;13.07;;
47758;SDS011;33520;55.122;35.582;2023-12-07T04:33:32;36.08;;;14.15;;
47758;SDS011;33520;55.122;35.582;2023-12-07T04:35:58;39.28;;;13.05;;
47758;SDS011;33520;55.122;35.582;2023-12-07T04:38:24;31.15;;;12.07;;
47758;SDS011;33520;55.122;35.582;2023-12-07T04:40:51;37.85;;;13.90;;
47758;SDS011;33520;55.122;35.582;2023-12-07T04:43:18;33.42;;;14.02;;
47758;SDS011;33520;55.122;35.582;2023-12-07T04:45:44;32.85;;;13.15;;
47758;SDS011;33520;55.122;35.582;2023-12-07T04:48:11;30.70;;;12.50;;
47758;SDS011;33520;55.122;35.582;2023-12-07T04:50:37;37.17;;;13.77;;
47758;SDS011;33520;55.122;35.582;2023-12-07T04:53:04;37.83;;;13.95;;
47758;SDS011;33520;55.122;35.582;2023-12-07T04:55:31;32.42;;;13.15;;
47758;SDS011;33520;55.122;35.582;2023-12-07T04:57:57;41.53;;;15.60;;
47758;SDS011;33520;55.122;35.582;2023-12-07T05:00:23;36.35;;;14.35;;
47758;SDS011;33520;55.122;35.582;2023-12-07T05:02:50;36.45;;;13.98;;
47758;SDS011;33520;55.122;35.582;2023-12-07T05:05:17;38.65;;;13.68;;
47758;SDS011;33520;55.122;35.582;2023-12-07T05:10:10;32.75;;;12.93;;
47758;SDS011;33520;55.122;35.582;2023-12-07T05:12:36;40.38;;;15.85;;
47758;SDS011;33520;55.122;35.582;2023-12-07T05:15:02;42.97;;;14.75;;
47758;SDS011;33520;55.122;35.582;2023-12-07T05:17:30;44.38;;;14.88;;
47758;SDS011;33520;55.122;35.582;2023-12-07T05:19:56;39.70;;;14.80;;
47758;SDS011;33520;55.122;35.582;2023-12-07T05:22:23;37.58;;;16.00;;
47758;SDS011;33520;55.122;35.582;2023-12-07T05:24:49;41.15;;;13.68;;
47758;SDS011;33520;55.122;35.582;2023-12-07T05:27:16;38.47;;;14.70;;
47758;SDS011;33520;55.122;35.582;2023-12-07T05:29:43;46.25;;;17.05;;
47758;SDS011;33520;55.122;35.582;2023-12-07T05:32:09;48.58;;;18.40;;
47758;SDS011;33520;55.122;35.582;2023-12-07T05:37:02;34.75;;;13.38;;
47758;SDS011;33520;55.122;35.582;2023-12-07T05:39:29;42.08;;;14.55;;
47758;SDS011;33520;55.122;35.582;2023-12-07T05:41:56;40.30;;;16.17;;
47758;SDS011;33520;55.122;35.582;2023-12-07T05:44:22;45.00;;;16.35;;
47758;SDS011;33520;55.122;35.582;2023-12-07T05:46:49;45.80;;;15.48;;
47758;SDS011;33520;55.122;35.582;2023-12-07T05:49:15;41.03;;;15.07;;
47758;SDS011;33520;55.122;35.582;2023-12-07T05:51:42;35.30;;;14.48;;
47758;SDS011;33520;55.122;35.582;2023-12-07T05:54:08;40.45;;;16.02;;
47758;SDS011;33520;55.122;35.582;2023-12-07T05:56:34;42.92;;;15.82;;
47758;SDS011;33520;55.122;35.582;2023-12-07T05:59:01;41.17;;;15.15;;
47758;SDS011;33520;55.122;35.582;2023-12-07T06:01:27;38.53;;;13.85;;
47758;SDS011;33520;55.122;35.582;2023-12-07T06:03:53;35.25;;;14.77;;
47758;SDS011;33520;55.122;35.582;2023-12-07T06:06:20;41.97;;;16.13;;
47758;SDS011;33520;55.122;35.582;2023-12-07T06:08:47;42.83;;;15.45;;
47758;SDS011;33520;55.122;35.582;2023-12-07T06:11:13;40.35;;;14.13;;
47758;SDS011;33520;55.122;35.582;2023-12-07T06:13:41;44.70;;;16.55;;
47758;SDS011;33520;55.122;35.582;2023-12-07T06:16:11;42.60;;;16.90;;
47758;SDS011;33520;55.122;35.582;2023-12-07T06:18:38;42.75;;;15.70;;
47758;SDS011;33520;55.122;35.582;2023-12-07T06:23:32;41.10;;;15.32;;
47758;SDS011;33520;55.122;35.582;2023-12-07T06:25:59;43.05;;;16.02;;
47758;SDS011;33520;55.122;35.582;2023-12-07T06:28:25;43.63;;;15.90;;
47758;SDS011;33520;55.122;35.582;2023-12-07T06:30:52;42.80;;;16.50;;
47758;SDS011;33520;55.122;35.582;2023-12-07T06:33:19;41.92;;;16.50;;
47758;SDS011;33520;55.122;35.582;2023-12-07T06:35:45;37.05;;;15.60;;
47758;SDS011;33520;55.122;35.582;2023-12-07T06:38:12;44.17;;;16.15;;
47758;SDS011;33520;55.122;35.582;2023-12-07T06:40:39;42.25;;;15.35;;
47758;SDS011;33520;55.122;35.582;2023-12-07T06:43:05;37.92;;;15.77;;
47758;SDS011;33520;55.122;35.582;2023-12-07T06:45:32;42.78;;;16.58;;
47758;SDS011;33520;55.122;35.582;2023-12-07T06:47:59;36.00;;;14.77;;
47758;SDS011;33520;55.122;35.582;2023-12-07T06:50:27;44.05;;;16.90;;
47758;SDS011;33520;55.122;35.582;2023-12-07T06:52:53;43.42;;;17.25;;
47758;SDS011;33520;55.122;35.582;2023-12-07T06:55:20;48.10;;;16.38;;
47758;SDS011;33520;55.122;35.582;2023-12-07T06:57:48;45.30;;;17.85;;
47758;SDS011;33520;55.122;35.582;2023-12-07T07:00:15;41.20;;;16.17;;
47758;SDS011;33520;55.122;35.582;2023-12-07T07:02:43;44.83;;;18.67;;
47758;SDS011;33520;55.122;35.582;2023-12-07T07:05:10;47.63;;;17.83;;
47758;SDS011;33520;55.122;35.582;2023-12-07T07:07:37;43.80;;;16.70;;
47758;SDS011;33520;55.122;35.582;2023-12-07T07:10:04;42.10;;;16.10;;
47758;SDS011;33520;55.122;35.582;2023-12-07T07:12:31;42.72;;;17.73;;
47758;SDS011;33520;55.122;35.582;2023-12-07T07:14:57;39.75;;;15.63;;
47758;SDS011;33520;55.122;35.582;2023-12-07T07:17:23;45.63;;;17.23;;
47758;SDS011;33520;55.122;35.582;2023-12-07T07:19:50;44.40;;;18.10;;
47758;SDS011;33520;55.122;35.582;2023-12-07T07:22:16;41.63;;;17.65;;
47758;SDS011;33520;55.122;35.582;2023-12-07T07:24:43;47.50;;;17.60;;
47758;SDS011;33520;55.122;35.582;2023-12-07T07:29:35;42.53;;;17.65;;
47758;SDS011;33520;55.122;35.582;2023-12-07T07:32:02;53.40;;;19.33;;
47758;SDS011;33520;55.122;35.582;2023-12-07T07:34:29;42.97;;;18.88;;
47758;SDS011;33520;55.122;35.582;2023-12-07T07:36:56;51.05;;;20.27;;
47758;SDS011;33520;55.122;35.582;2023-12-07T07:39:23;45.88;;;20.90;;
47758;SDS011;33520;55.122;35.582;2023-12-07T07:41:49;49.13;;;19.67;;
47758;SDS011;33520;55.122;35.582;2023-12-07T07:44:15;43.90;;;18.00;;
47758;SDS011;33520;55.122;35.582;2023-12-07T07:46:42;37.47;;;16.42;;
47758;SDS011;33520;55.122;35.582;2023-12-07T07:49:09;37.60;;;17.10;;
47758;SDS011;33520;55.122;35.582;2023-12-07T07:51:35;39.00;;;16.67;;
47758;SDS011;33520;55.122;35.582;2023-12-07T07:54:01;33.45;;;16.63;;
47758;SDS011;33520;55.122;35.582;2023-12-07T07:56:28;31.58;;;14.13;;
47758;SDS011;33520;55.122;35.582;2023-12-07T08:01:20;31.65;;;14.73;;
47758;SDS011;33520;55.122;35.582;2023-12-07T08:06:13;26.98;;;13.65;;
47758;SDS011;33520;55.122;35.582;2023-12-07T08:08:39;35.90;;;14.60;;
47758;SDS011;33520;55.122;35.582;2023-12-07T08:11:06;27.60;;;13.75;;
47758;SDS011;33520;55.122;35.582;2023-12-07T08:13:32;31.77;;;12.93;;
47758;SDS011;33520;55.122;35.582;2023-12-07T08:15:59;24.70;;;13.23;;
47758;SDS011;33520;55.122;35.582;2023-12-07T08:18:25;23.83;;;11.20;;
47758;SDS011;33520;55.122;35.582;2023-12-07T08:20:51;24.02;;;11.90;;
47758;SDS011;33520;55.122;35.582;2023-12-07T08:23:18;26.20;;;12.95;;
47758;SDS011;33520;55.122;35.582;2023-12-07T08:25:44;25.77;;;12.65;;
47758;SDS011;33520;55.122;35.582;2023-12-07T08:28:11;20.42;;;10.95;;
47758;SDS011;33520;55.122;35.582;2023-12-07T08:33:03;20.27;;;11.35;;
47758;SDS011;33520;55.122;35.582;2023-12-07T08:35:30;22.80;;;11.07;;
47758;SDS011;33520;55.122;35.582;2023-12-07T08:37:56;22.83;;;11.40;;
47758;SDS011;33520;55.122;35.582;2023-12-07T08:40:23;20.13;;;10.98;;
47758;SDS011;33520;55.122;35.582;2023-12-07T08:42:49;20.77;;;10.18;;
47758;SDS011;33520;55.122;35.582;2023-12-07T08:45:15;22.70;;;10.95;;
47758;SDS011;33520;55.122;35.582;2023-12-07T08:47:42;16.50;;;9.13;;
47758;SDS011;33520;55.122;35.582;2023-12-07T08:50:08;22.08;;;11.70;;
47758;SDS011;33520;55.122;35.582;2023-12-07T08:55:01;17.60;;;9.55;;
47758;SDS011;33520;55.122;35.582;2023-12-07T08:57:28;20.08;;;10.50;;
47758;SDS011;33520;55.122;35.582;2023-12-07T08:59:54;20.15;;;10.77;;
47758;SDS011;33520;55.122;35.582;2023-12-07T09:02:21;22.10;;;10.57;;
47758;SDS011;33520;55.122;35.582;2023-12-07T09:04:47;18.38;;;10.38;;
47758;SDS011;33520;55.122;35.582;2023-12-07T09:07:16;14.15;;;8.20;;
47758;SDS011;33520;55.122;35.582;2023-12-07T09:09:42;17.65;;;9.52;;
47758;SDS011;33520;55.122;35.582;2023-12-07T09:12:14;18.63;;;9.95;;
47758;SDS011;33520;55.122;35.582;2023-12-07T09:14:40;14.35;;;7.93;;
47758;SDS011;33520;55.122;35.582;2023-12-07T09:17:06;17.23;;;8.82;;
47758;SDS011;33520;55.122;35.582;2023-12-07T09:19:33;18.02;;;8.23;;
47758;SDS011;33520;55.122;35.582;2023-12-07T09:24:26;16.63;;;7.70;;
47758;SDS011;33520;55.122;35.582;2023-12-07T09:26:52;16.30;;;9.38;;
47758;SDS011;33520;55.122;35.582;2023-12-07T09:29:18;14.93;;;7.25;;
47758;SDS011;33520;55.122;35.582;2023-12-07T09:31:45;15.32;;;8.23;;
47758;SDS011;33520;55.122;35.582;2023-12-07T09:34:11;14.70;;;8.20;;
47758;SDS011;33520;55.122;35.582;2023-12-07T09:36:44;15.48;;;7.55;;
47758;SDS011;33520;55.122;35.582;2023-12-07T09:39:11;16.67;;;8.18;;
47758;SDS011;33520;55.122;35.582;2023-12-07T09:44:05;20.02;;;8.85;;
47758;SDS011;33520;55.122;35.582;2023-12-07T09:48:58;19.13;;;8.45;;
47758;SDS011;33520;55.122;35.582;2023-12-07T09:51:24;20.00;;;8.80;;
47758;SDS011;33520;55.122;35.582;2023-12-07T09:53:51;17.02;;;7.45;;
47758;SDS011;33520;55.122;35.582;2023-12-07T09:56:18;14.48;;;7.50;;
47758;SDS011;33520;55.122;35.582;2023-12-07T09:58:45;15.45;;;8.27;;
47758;SDS011;33520;55.122;35.582;2023-12-07T10:03:41;15.05;;;7.40;;
47758;SDS011;33520;55.122;35.582;2023-12-07T10:06:08;15.95;;;8.02;;
47758;SDS011;33520;55.122;35.582;2023-12-07T10:08:35;16.35;;;7.22;;
47758;SDS011;33520;55.122;35.582;2023-12-07T10:11:05;15.65;;;7.93;;
47758;SDS011;33520;55.122;35.582;2023-12-07T10:13:33;18.83;;;7.97;;
47758;SDS011;33520;55.122;35.582;2023-12-07T10:18:35;17.90;;;8.70;;
47758;SDS011;33520;55.122;35.582;2023-12-07T10:21:02;17.05;;;7.93;;
47758;SDS011;33520;55.122;35.582;2023-12-07T10:23:29;14.27;;;7.13;;
47758;SDS011;33520;55.122;35.582;2023-12-07T10:25:57;15.75;;;7.53;;
47758;SDS011;33520;55.122;35.582;2023-12-07T10:28:27;18.00;;;8.20;;
47758;SDS011;33520;55.122;35.582;2023-12-07T10:30:53;14.63;;;7.43;;
47758;SDS011;33520;55.122;35.582;2023-12-07T10:33:20;14.73;;;7.82;;
47758;SDS011;33520;55.122;35.582;2023-12-07T10:35:46;14.73;;;7.38;;
47758;SDS011;33520;55.122;35.582;2023-12-07T10:38:14;16.40;;;7.38;;
47758;SDS011;33520;55.122;35.582;2023-12-07T10:43:08;24.40;;;9.27;;
47758;SDS011;33520;55.122;35.582;2023-12-07T10:45:34;16.98;;;8.07;;
47758;SDS011;33520;55.122;35.582;2023-12-07T10:48:03;16.98;;;7.30;;
47758;SDS011;33520;55.122;35.582;2023-12-07T10:50:32;16.10;;;8.55;;
47758;SDS011;33520;55.122;35.582;2023-12-07T10:53:04;18.48;;;8.50;;
47758;SDS011;33520;55.122;35.582;2023-12-07T10:58:31;17.08;;;8.32;;
47758;SDS011;33520;55.122;35.582;2023-12-07T11:01:02;17.80;;;8.02;;
47758;SDS011;33520;55.122;35.582;2023-12-07T11:03:28;17.85;;;9.13;;
47758;SDS011;33520;55.122;35.582;2023-12-07T11:05:57;19.45;;;9.50;;
47758;SDS011;33520;55.122;35.582;2023-12-07T11:08:40;14.65;;;8.68;;
47758;SDS011;33520;55.122;35.582;2023-12-07T11:14:11;18.13;;;8.02;;
47758;SDS011;33520;55.122;35.582;2023-12-07T11:16:41;14.68;;;7.55;;
47758;SDS011;33520;55.122;35.582;2023-12-07T11:22:06;18.90;;;7.55;;
47758;SDS011;33520;55.122;35.582;2023-12-07T11:24:33;16.13;;;7.88;;
47758;SDS011;33520;55.122;35.582;2023-12-07T11:26:59;17.70;;;7.90;;
47758;SDS011;33520;55.122;35.582;2023-12-07T11:29:30;14.75;;;7.72;;
47758;SDS011;33520;55.122;35.582;2023-12-07T11:32:04;17.10;;;7.45;;
47758;SDS011;33520;55.122;35.582;2023-12-07T11:34:39;20.33;;;9.07;;
47758;SDS011;33520;55.122;35.582;2023-12-07T11:37:06;14.88;;;7.38;;
47758;SDS011;33520;55.122;35.582;2023-12-07T11:39:39;16.77;;;8.27;;
47758;SDS011;33520;55.122;35.582;2023-12-07T11:42:16;16.00;;;7.57;;
47758;SDS011;33520;55.122;35.582;2023-12-07T11:44:47;16.38;;;7.22;;
47758;SDS011;33520;55.122;35.582;2023-12-07T11:47:17;18.23;;;8.68;;
47758;SDS011;33520;55.122;35.582;2023-12-07T11:49:45;19.80;;;7.75;;
47758;SDS011;33520;55.122;35.582;2023-12-07T11:52:13;22.00;;;8.32;;
47758;SDS011;33520;55.122;35.582;2023-12-07T11:54:42;19.17;;;8.55;;
47758;SDS011;33520;55.122;35.582;2023-12-07T11:57:10;20.08;;;10.05;;
47758;SDS011;33520;55.122;35.582;2023-12-07T12:02:03;14.48;;;6.60;;
47758;SDS011;33520;55.122;35.582;2023-12-07T12:04:30;14.88;;;6.85;;
47758;SDS011;33520;55.122;35.582;2023-12-07T12:06:56;15.07;;;7.15;;
47758;SDS011;33520;55.122;35.582;2023-12-07T12:09:26;17.52;;;8.70;;
47758;SDS011;33520;55.122;35.582;2023-12-07T12:11:52;17.65;;;7.72;;
47758;SDS011;33520;55.122;35.582;2023-12-07T12:14:19;18.67;;;7.72;;
47758;SDS011;33520;55.122;35.582;2023-12-07T12:16:46;15.07;;;7.55;;
47758;SDS011;33520;55.122;35.582;2023-12-07T12:19:13;17.52;;;7.95;;
47758;SDS011;33520;55.122;35.582;2023-12-07T12:21:42;15.55;;;7.93;;
47758;SDS011;33520;55.122;35.582;2023-12-07T12:24:12;13.93;;;7.55;;
47758;SDS011;33520;55.122;35.582;2023-12-07T12:26:40;16.33;;;7.68;;
47758;SDS011;33520;55.122;35.582;2023-12-07T12:29:08;15.10;;;7.03;;
47758;SDS011;33520;55.122;35.582;2023-12-07T12:31:35;15.48;;;7.65;;
47758;SDS011;33520;55.122;35.582;2023-12-07T12:36:28;14.05;;;7.07;;
47758;SDS011;33520;55.122;35.582;2023-12-07T12:38:55;15.02;;;7.55;;
47758;SDS011;33520;55.122;35.582;2023-12-07T12:41:22;17.27;;;8.38;;
47758;SDS011;33520;55.122;35.582;2023-12-07T12:43:49;14.70;;;7.55;;
47758;SDS011;33520;55.122;35.582;2023-12-07T12:46:16;14.07;;;7.25;;
47758;SDS011;33520;55.122;35.582;2023-12-07T12:48:55;17.17;;;8.15;;
47758;SDS011;33520;55.122;35.582;2023-12-07T12:51:26;13.90;;;6.50;;
47758;SDS011;33520;55.122;35.582;2023-12-07T12:53:54;16.33;;;8.60;;
47758;SDS011;33520;55.122;35.582;2023-12-07T12:56:21;14.75;;;6.93;;
47758;SDS011;33520;55.122;35.582;2023-12-07T12:58:49;16.45;;;7.28;;
47758;SDS011;33520;55.122;35.582;2023-12-07T13:01:16;17.63;;;8.23;;
47758;SDS011;33520;55.122;35.582;2023-12-07T13:03:52;17.05;;;7.15;;
47758;SDS011;33520;55.122;35.582;2023-12-07T13:06:18;14.70;;;6.80;;
47758;SDS011;33520;55.122;35.582;2023-12-07T13:08:45;16.10;;;7.78;;
47758;SDS011;33520;55.122;35.582;2023-12-07T13:11:18;15.57;;;7.75;;
47758;SDS011;33520;55.122;35.582;2023-12-07T13:13:45;16.13;;;7.50;;
47758;SDS011;33520;55.122;35.582;2023-12-07T13:16:15;14.85;;;8.05;;
47758;SDS011;33520;55.122;35.582;2023-12-07T13:18:42;13.63;;;7.30;;
47758;SDS011;33520;55.122;35.582;2023-12-07T13:21:09;14.98;;;7.63;;
47758;SDS011;33520;55.122;35.582;2023-12-07T13:23:36;17.95;;;8.70;;
47758;SDS011;33520;55.122;35.582;2023-12-07T13:26:02;16.05;;;6.93;;
47758;SDS011;33520;55.122;35.582;2023-12-07T13:28:30;14.95;;;8.73;;
47758;SDS011;33520;55.122;35.582;2023-12-07T13:30:56;16.38;;;8.05;;
47758;SDS011;33520;55.122;35.582;2023-12-07T13:33:22;13.90;;;6.97;;
47758;SDS011;33520;55.122;35.582;2023-12-07T13:35:49;18.08;;;8.57;;
47758;SDS011;33520;55.122;35.582;2023-12-07T13:38:15;19.35;;;9.27;;
47758;SDS011;33520;55.122;35.582;2023-12-07T13:40:46;19.88;;;8.18;;
47758;SDS011;33520;55.122;35.582;2023-12-07T13:43:12;22.25;;;10.63;;
47758;SDS011;33520;55.122;35.582;2023-12-07T13:45:38;25.30;;;9.98;;
47758;SDS011;33520;55.122;35.582;2023-12-07T13:48:05;22.52;;;10.50;;
47758;SDS011;33520;55.122;35.582;2023-12-07T13:50:31;22.92;;;10.02;;
47758;SDS011;33520;55.122;35.582;2023-12-07T13:52:58;21.88;;;10.20;;
47758;SDS011;33520;55.122;35.582;2023-12-07T13:55:24;23.25;;;9.77;;
47758;SDS011;33520;55.122;35.582;2023-12-07T13:57:51;20.92;;;10.50;;
47758;SDS011;33520;55.122;35.582;2023-12-07T14:00:19;21.50;;;9.65;;
47758;SDS011;33520;55.122;35.582;2023-12-07T14:02:46;22.90;;;10.18;;
47758;SDS011;33520;55.122;35.582;2023-12-07T14:05:12;23.48;;;10.50;;
47758;SDS011;33520;55.122;35.582;2023-12-07T14:07:39;28.70;;;11.52;;
47758;SDS011;33520;55.122;35.582;2023-12-07T14:10:06;28.98;;;13.25;;
47758;SDS011;33520;55.122;35.582;2023-12-07T14:12:33;23.73;;;11.40;;
47758;SDS011;33520;55.122;35.582;2023-12-07T14:15:00;26.67;;;12.23;;
47758;SDS011;33520;55.122;35.582;2023-12-07T14:17:26;27.05;;;11.65;;
47758;SDS011;33520;55.122;35.582;2023-12-07T14:22:19;23.20;;;10.23;;
47758;SDS011;33520;55.122;35.582;2023-12-07T14:24:47;24.45;;;9.68;;
47758;SDS011;33520;55.122;35.582;2023-12-07T14:27:13;26.38;;;11.52;;
47758;SDS011;33520;55.122;35.582;2023-12-07T14:29:41;23.60;;;11.00;;
47758;SDS011;33520;55.122;35.582;2023-12-07T14:32:07;22.17;;;11.80;;
47758;SDS011;33520;55.122;35.582;2023-12-07T14:34:35;25.05;;;11.38;;
47758;SDS011;33520;55.122;35.582;2023-12-07T14:37:03;20.60;;;9.75;;
47758;SDS011;33520;55.122;35.582;2023-12-07T14:39:31;23.42;;;9.68;;
47758;SDS011;33520;55.122;35.582;2023-12-07T14:41:57;22.75;;;10.85;;
47758;SDS011;33520;55.122;35.582;2023-12-07T14:44:24;22.70;;;9.75;;
47758;SDS011;33520;55.122;35.582;2023-12-07T14:49:17;19.75;;;9.40;;
47758;SDS011;33520;55.122;35.582;2023-12-07T14:51:47;22.52;;;10.05;;
47758;SDS011;33520;55.122;35.582;2023-12-07T14:54:14;25.95;;;10.98;;
47758;SDS011;33520;55.122;35.582;2023-12-07T14:56:42;20.15;;;9.82;;
47758;SDS011;33520;55.122;35.582;2023-12-07T14:59:09;21.15;;;10.10;;
47758;SDS011;33520;55.122;35.582;2023-12-07T15:01:39;20.40;;;10.30;;
47758;SDS011;33520;55.122;35.582;2023-12-07T15:04:06;22.75;;;9.93;;
47758;SDS011;33520;55.122;35.582;2023-12-07T15:06:32;22.58;;;10.48;;
47758;SDS011;33520;55.122;35.582;2023-12-07T15:08:59;21.85;;;12.02;;
47758;SDS011;33520;55.122;35.582;2023-12-07T15:13:51;22.13;;;8.95;;
47758;SDS011;33520;55.122;35.582;2023-12-07T15:16:18;20.70;;;9.40;;
47758;SDS011;33520;55.122;35.582;2023-12-07T15:18:44;20.35;;;8.02;;
47758;SDS011;33520;55.122;35.582;2023-12-07T15:21:11;23.38;;;9.88;;
47758;SDS011;33520;55.122;35.582;2023-12-07T15:23:39;20.25;;;9.48;;
47758;SDS011;33520;55.122;35.582;2023-12-07T15:26:06;19.83;;;9.50;;
47758;SDS011;33520;55.122;35.582;2023-12-07T15:28:34;20.98;;;10.32;;
47758;SDS011;33520;55.122;35.582;2023-12-07T15:31:02;24.73;;;9.82;;
47758;SDS011;33520;55.122;35.582;2023-12-07T15:33:29;21.13;;;9.80;;
47758;SDS011;33520;55.122;35.582;2023-12-07T15:35:56;19.17;;;9.60;;
47758;SDS011;33520;55.122;35.582;2023-12-07T15:38:23;19.73;;;9.10;;